Time;durP1;ratioP1;P1;durP2;ratioP2;P2;SDS_P1;SDS_P2;PMS_P1;PMS_P2;Temp;Humidity;BMP_temperature;BMP_pressure;BME280_temperature;BME280_humidity;BME280_pressure;Samples;Min_cycle;Max_cycle;Signal;HPM_P1;HPM_P2
2023/02/28 00:00:54;;;;;;;;;;;2.20;89.20;;;;;;8395420;28;19931;-71
2023/02/28 00:05:00;;;;;;;;;;;2.20;88.50;;;;;;8373102;28;19932;-71
2023/02/28 00:09:02;;;;;;;;;;;2.20;88.80;;;;;;8369831;28;19928;-71
2023/02/28 00:13:05;;;;;;;;;;;2.20;89.80;;;;;;8386770;28;19924;-71
2023/02/28 00:17:07;;;;;;;;;;;2.20;90.10;;;;;;8389393;28;19947;-71
2023/02/28 00:21:09;;;;;;;;;;;2.30;90.10;;;;;;8401776;28;19931;-71
2023/02/28 00:25:11;;;;;;;;;;;2.30;90.00;;;;;;8394249;28;19924;-71
2023/02/28 00:29:13;;;;;;;;;;;2.40;90.80;;;;;;8388219;28;19970;-71
2023/02/28 00:33:15;;;;;;;;;;;2.50;91.00;;;;;;8390596;28;19967;-71
2023/02/28 00:37:17;;;;;;;;;;;2.50;91.40;;;;;;8382725;28;20395;-71
2023/02/28 00:41:18;;;;;;;;;;;2.70;91.40;;;;;;8376735;28;19932;-71
2023/02/28 00:45:20;;;;;;;;;;;2.70;91.40;;;;;;8358336;28;19925;-71
2023/02/28 00:49:22;;;;;;;;;;;2.80;91.60;;;;;;8360376;28;19933;-71
2023/02/28 00:53:24;;;;;;;;;;;2.90;92.00;;;;;;8360160;28;19928;-71
2023/02/28 00:57:26;;;;;;;;;;;2.90;92.40;;;;;;8354458;28;19931;-71
2023/02/28 01:01:28;;;;;;;;;;;3.00;92.30;;;;;;8349881;28;20315;-71
2023/02/28 01:05:30;;;;;;;;;;;3.10;92.70;;;;;;8354810;28;19939;-71
2023/02/28 01:09:31;;;;;;;;;;;3.10;92.90;;;;;;8357270;28;19933;-71
2023/02/28 01:13:33;;;;;;;;;;;3.10;93.10;;;;;;8357000;28;19983;-71
2023/02/28 01:17:35;;;;;;;;;;;3.20;92.70;;;;;;8355251;28;19940;-71
2023/02/28 01:21:37;;;;;;;;;;;3.20;92.70;;;;;;8356649;28;20405;-71
2023/02/28 01:25:38;;;;;;;;;;;3.30;92.80;;;;;;8354490;28;19960;-71
2023/02/28 01:29:40;;;;;;;;;;;3.30;92.90;;;;;;8359387;28;19944;-71
2023/02/28 01:33:42;;;;;;;;;;;3.30;92.80;;;;;;8357752;28;20195;-71
2023/02/28 01:37:43;;;;;;;;;;;3.30;93.00;;;;;;8358285;28;19924;-71
2023/02/28 01:41:45;;;;;;;;;;;3.30;92.90;;;;;;8372529;28;19978;-71
2023/02/28 01:45:47;;;;;;;;;;;3.40;93.00;;;;;;8386156;28;19928;-71
2023/02/28 01:49:51;;;;;;;;;;;3.40;93.20;;;;;;8387013;28;20214;-71
2023/02/28 01:53:56;;;;;;;;;;;3.40;93.40;;;;;;8388132;28;19968;-71
2023/02/28 01:57:59;;;;;;;;;;;3.40;93.80;;;;;;8389968;28;19943;-71
2023/02/28 02:02:02;;;;;;;;;;;3.40;93.80;;;;;;8403162;28;20358;-71
2023/02/28 02:06:03;;;;;;;;;;;3.40;94.00;;;;;;8383824;28;19935;-70
2023/02/28 02:10:19;;;;;;;;;;;3.50;93.70;;;;;;8391292;28;20022;-70
2023/02/28 02:14:29;;;;;;;;;;;3.50;93.80;;;;;;8389347;28;20295;-70
2023/02/28 02:18:31;;;;;;;;;;;3.50;93.70;;;;;;8390571;28;20368;-70
2023/02/28 02:22:36;;;;;;;;;;;3.50;93.90;;;;;;8393589;28;19970;-71
2023/02/28 02:26:56;;;;;;;;;;;3.50;93.90;;;;;;8405717;28;19931;-71
2023/02/28 02:31:18;;;;;;;;;;;3.50;93.70;;;;;;8395990;28;20467;-71
2023/02/28 02:35:32;;;;;;;;;;;3.60;94.10;;;;;;8365110;28;19925;-71
2023/02/28 02:39:39;;;;;;;;;;;3.50;93.80;;;;;;8395791;28;19989;-71
2023/02/28 02:43:46;;;;;;;;;;;3.60;93.90;;;;;;8359102;28;19925;-71
2023/02/28 02:47:49;;;;;;;;;;;3.60;94.10;;;;;;8386120;28;19981;-71
2023/02/28 02:51:52;;;;;;;;;;;3.60;94.40;;;;;;8394367;28;19924;-71
2023/02/28 02:55:54;;;;;;;;;;;3.60;94.50;;;;;;8385371;28;19935;-71
2023/02/28 03:15:05;;;;;;;;;;;3.50;94.60;;;;;;8381788;28;19965;-70
2023/02/28 03:19:17;;;;;;;;;;;3.50;94.60;;;;;;8388696;28;19982;-71
2023/02/28 03:23:27;;;;;;;;;;;3.50;94.70;;;;;;8392795;28;20400;-71
2023/02/28 03:27:30;;;;;;;;;;;3.50;94.50;;;;;;8390198;28;19978;-71
2023/02/28 03:31:35;;;;;;;;;;;3.50;94.50;;;;;;8378805;28;19968;-71
2023/02/28 03:45:58;;;;;;;;;;;3.50;94.70;;;;;;8356324;28;19927;-70
2023/02/28 03:50:08;;;;;;;;;;;3.50;95.10;;;;;;8387378;28;19936;-70
2023/02/28 03:54:12;;;;;;;;;;;3.40;95.50;;;;;;8388314;28;19963;-71
2023/02/28 03:58:27;;;;;;;;;;;3.40;95.10;;;;;;8388759;28;20348;-71
2023/02/28 04:02:28;;;;;;;;;;;3.50;95.20;;;;;;8376413;28;19932;-71
2023/02/28 04:06:31;;;;;;;;;;;3.40;95.30;;;;;;8389382;28;19924;-71
2023/02/28 04:10:33;;;;;;;;;;;3.50;95.30;;;;;;8391555;28;20303;-71
2023/02/28 04:14:34;;;;;;;;;;;3.40;95.00;;;;;;8390873;28;19929;-71
2023/02/28 04:18:36;;;;;;;;;;;3.40;95.30;;;;;;8395629;28;19924;-71
2023/02/28 04:22:38;;;;;;;;;;;3.40;96.00;;;;;;8400166;28;19968;-71
2023/02/28 04:26:40;;;;;;;;;;;3.40;95.90;;;;;;8385253;28;19924;-71
2023/02/28 04:30:42;;;;;;;;;;;3.30;96.30;;;;;;8395473;28;19951;-71
2023/02/28 04:34:43;;;;;;;;;;;3.30;95.80;;;;;;8390394;28;20440;-71
2023/02/28 04:38:45;;;;;;;;;;;3.20;96.40;;;;;;8373751;28;19936;-71
2023/02/28 04:42:47;;;;;;;;;;;3.20;96.40;;;;;;8380671;28;19925;-71
2023/02/28 04:46:49;;;;;;;;;;;3.20;96.30;;;;;;8391195;28;19931;-70
2023/02/28 04:50:51;;;;;;;;;;;3.20;96.00;;;;;;8387015;28;19924;-70
2023/02/28 04:54:53;;;;;;;;;;;3.20;95.90;;;;;;8368115;28;20347;-70
2023/02/28 04:58:54;;;;;;;;;;;3.20;95.70;;;;;;8389929;28;20289;-71
2023/02/28 05:02:56;;;;;;;;;;;3.10;95.60;;;;;;8391447;28;20337;-70
2023/02/28 05:06:58;;;;;;;;;;;3.10;95.90;;;;;;8374502;28;19976;-71
2023/02/28 05:11:00;;;;;;;;;;;3.10;95.90;;;;;;8386448;28;20351;-71
2023/02/28 05:15:03;;;;;;;;;;;3.00;95.80;;;;;;8389521;28;19932;-71
2023/02/28 05:19:04;;;;;;;;;;;3.00;96.00;;;;;;8387990;28;19924;-71
2023/02/28 05:23:07;;;;;;;;;;;2.90;96.10;;;;;;8375089;28;19924;-70
2023/02/28 05:27:09;;;;;;;;;;;2.90;96.60;;;;;;8391125;28;20011;-71
2023/02/28 05:31:11;;;;;;;;;;;2.90;95.80;;;;;;8389915;28;19935;-71
2023/02/28 05:35:38;;;;;;;;;;;2.90;96.10;;;;;;8396698;28;20387;-71
2023/02/28 05:39:43;;;;;;;;;;;2.80;96.30;;;;;;8378998;28;20282;-71
2023/02/28 05:43:45;;;;;;;;;;;2.80;96.00;;;;;;8380638;28;19928;-71
2023/02/28 05:47:46;;;;;;;;;;;2.80;96.10;;;;;;8388342;28;20020;-71
2023/02/28 05:51:48;;;;;;;;;;;2.80;95.80;;;;;;8399747;28;19931;-71
2023/02/28 05:55:50;;;;;;;;;;;2.80;95.90;;;;;;8390236;28;20356;-70
2023/02/28 05:59:51;;;;;;;;;;;2.80;96.10;;;;;;8391423;28;19924;-70
2023/02/28 06:03:53;;;;;;;;;;;2.80;96.30;;;;;;8384376;28;19968;-70
2023/02/28 06:07:54;;;;;;;;;;;2.80;96.30;;;;;;8389862;28;19928;-70
2023/02/28 06:12:00;;;;;;;;;;;2.80;96.40;;;;;;8398488;28;19947;-71
2023/02/28 06:16:01;;;;;;;;;;;2.80;96.40;;;;;;8386444;28;19952;-71
2023/02/28 06:20:04;;;;;;;;;;;2.80;96.60;;;;;;8388075;28;19940;-70
2023/02/28 06:24:06;;;;;;;;;;;2.80;96.50;;;;;;8372254;28;20016;-71
2023/02/28 06:28:07;;;;;;;;;;;2.70;96.40;;;;;;8385038;28;20277;-71
2023/02/28 06:32:09;;;;;;;;;;;2.70;96.90;;;;;;8381168;28;19924;-71
2023/02/28 06:36:12;;;;;;;;;;;2.70;97.20;;;;;;8386537;28;19925;-71
2023/02/28 06:40:14;;;;;;;;;;;2.70;96.80;;;;;;8379323;28;20400;-71
2023/02/28 06:44:16;;;;;;;;;;;2.60;97.10;;;;;;8372060;28;19928;-71
2023/02/28 06:48:17;;;;;;;;;;;2.60;96.70;;;;;;8389248;28;19971;-71
2023/02/28 06:52:19;;;;;;;;;;;2.70;97.30;;;;;;8374014;28;19924;-71
2023/02/28 06:56:20;;;;;;;;;;;2.70;97.90;;;;;;8382238;28;19928;-71
2023/02/28 07:10:23;;;;;;;;;;;2.80;97.10;;;;;;8391710;28;20003;-71
2023/02/28 07:14:25;;;;;;;;;;;2.80;97.20;;;;;;8382268;28;20415;-71
2023/02/28 07:18:27;;;;;;;;;;;2.80;97.90;;;;;;8393374;28;20027;-71
2023/02/28 07:22:29;;;;;;;;;;;2.80;97.20;;;;;;8395287;28;19925;-71
2023/02/28 07:26:30;;;;;;;;;;;2.80;97.70;;;;;;8390648;28;19924;-71
2023/02/28 07:30:32;;;;;;;;;;;2.90;97.30;;;;;;8393408;28;20294;-71
2023/02/28 07:34:33;;;;;;;;;;;2.90;97.70;;;;;;8392742;28;19991;-71
2023/02/28 07:38:37;;;;;;;;;;;2.90;98.10;;;;;;8394670;28;20291;-71
2023/02/28 07:42:39;;;;;;;;;;;2.90;97.90;;;;;;8385930;28;19972;-71
2023/02/28 07:46:41;;;;;;;;;;;3.00;98.70;;;;;;8385906;28;19931;-71
2023/02/28 07:50:43;;;;;;;;;;;3.00;98.80;;;;;;8388608;28;19924;-71
2023/02/28 07:54:44;;;;;;;;;;;3.10;98.60;;;;;;8382112;28;19931;-71
2023/02/28 07:58:46;;;;;;;;;;;3.10;98.80;;;;;;8406624;28;20023;-71
2023/02/28 08:02:48;;;;;;;;;;;3.20;99.00;;;;;;8393638;28;19928;-71
2023/02/28 08:06:51;;;;;;;;;;;3.30;99.40;;;;;;8389010;28;20310;-71
2023/02/28 08:10:53;;;;;;;;;;;3.40;99.50;;;;;;8391766;28;19924;-71
2023/02/28 08:14:57;;;;;;;;;;;3.50;99.70;;;;;;8386695;28;19924;-71
2023/02/28 08:18:59;;;;;;;;;;;3.50;99.60;;;;;;8394169;28;19925;-71
2023/02/28 08:23:00;;;;;;;;;;;3.60;99.90;;;;;;8393679;28;19929;-71
2023/02/28 08:27:02;;;;;;;;;;;3.70;99.90;;;;;;8386809;28;19924;-71
2023/02/28 08:31:08;;;;;;;;;;;3.70;99.90;;;;;;8392980;28;20312;-71
2023/02/28 08:35:10;;;;;;;;;;;3.80;99.90;;;;;;8389515;28;19959;-71
2023/02/28 08:39:12;;;;;;;;;;;3.80;99.90;;;;;;8386534;28;19930;-71
2023/02/28 08:43:14;;;;;;;;;;;3.80;99.90;;;;;;8366221;28;19986;-71
2023/02/28 08:47:15;;;;;;;;;;;3.80;99.90;;;;;;8384360;28;19924;-71
2023/02/28 08:51:25;;;;;;;;;;;3.90;99.80;;;;;;8353476;28;19925;-71
2023/02/28 08:55:27;;;;;;;;;;;3.90;99.60;;;;;;8390065;28;19925;-71
2023/02/28 08:59:29;;;;;;;;;;;4.00;99.90;;;;;;8395620;28;19971;-71
2023/02/28 09:03:31;;;;;;;;;;;4.00;99.60;;;;;;8391718;28;19924;-71
2023/02/28 09:07:32;;;;;;;;;;;4.10;99.30;;;;;;8393494;28;19924;-71
2023/02/28 09:11:34;;;;;;;;;;;4.10;99.30;;;;;;8385320;28;19971;-71
2023/02/28 09:15:39;;;;;;;;;;;4.20;99.50;;;;;;8381246;28;19928;-71
2023/02/28 09:19:40;;;;;;;;;;;4.50;99.90;;;;;;8388938;28;20389;-70
2023/02/28 09:23:43;;;;;;;;;;;4.90;99.90;;;;;;8389621;28;19944;-70
2023/02/28 09:27:45;;;;;;;;;;;5.20;99.90;;;;;;8364611;28;19968;-71
2023/02/28 09:31:47;;;;;;;;;;;5.50;99.90;;;;;;8387477;28;19924;-71
2023/02/28 09:35:51;;;;;;;;;;;5.60;99.60;;;;;;8388030;28;19924;-71
2023/02/28 09:39:52;;;;;;;;;;;5.70;98.20;;;;;;8388242;28;19960;-71
2023/02/28 09:43:59;;;;;;;;;;;5.70;98.20;;;;;;8390189;28;20023;-71
2023/02/28 09:48:04;;;;;;;;;;;5.70;98.10;;;;;;8369808;28;19940;-71
2023/02/28 09:52:15;;;;;;;;;;;5.80;97.80;;;;;;8387007;28;19928;-70
2023/02/28 09:56:27;;;;;;;;;;;5.80;96.40;;;;;;8390284;28;19931;-70
2023/02/28 10:00:33;;;;;;;;;;;6.00;97.30;;;;;;8370435;28;19936;-71
2023/02/28 10:04:38;;;;;;;;;;;6.20;96.90;;;;;;8385397;28;19932;-71
2023/02/28 10:08:44;;;;;;;;;;;6.40;97.10;;;;;;8373130;28;19936;-71
2023/02/28 10:12:46;;;;;;;;;;;6.60;98.00;;;;;;8394019;28;19928;-71
2023/02/28 10:16:59;;;;;;;;;;;6.80;97.50;;;;;;8394009;28;20015;-71
2023/02/28 10:21:00;;;;;;;;;;;7.10;97.30;;;;;;8387488;28;19968;-71
2023/02/28 10:25:05;;;;;;;;;;;7.70;96.50;;;;;;8372244;28;19924;-71
2023/02/28 10:29:08;;;;;;;;;;;8.10;99.70;;;;;;8368853;28;19925;-71
2023/02/28 10:33:19;;;;;;;;;;;8.40;98.70;;;;;;8387926;28;19929;-71
2023/02/28 10:37:20;;;;;;;;;;;8.70;99.40;;;;;;8371131;28;19968;-71
2023/02/28 10:41:28;;;;;;;;;;;9.10;99.20;;;;;;8388893;28;19967;-71
2023/02/28 10:45:31;;;;;;;;;;;9.60;99.90;;;;;;8380344;28;19929;-71
2023/02/28 10:49:33;;;;;;;;;;;10.10;99.90;;;;;;8382215;28;20376;-71
2023/02/28 10:53:37;;;;;;;;;;;10.40;99.90;;;;;;8397796;28;20022;-71
2023/02/28 10:57:58;;;;;;;;;;;10.80;99.90;;;;;;8382795;28;20007;-71
2023/02/28 11:02:00;;;;;;;;;;;11.20;99.90;;;;;;8399325;28;19950;-71
2023/02/28 11:06:13;;;;;;;;;;;11.60;99.90;;;;;;8397300;28;19977;-71
2023/02/28 11:10:19;;;;;;;;;;;11.80;99.90;;;;;;8390676;28;20390;-71
2023/02/28 11:14:22;;;;;;;;;;;12.20;99.90;;;;;;8396480;28;20440;-71
2023/02/28 11:18:23;;;;;;;;;;;12.30;99.90;;;;;;8381488;28;21374;-71
2023/02/28 11:22:28;;;;;;;;;;;12.70;99.90;;;;;;8392330;28;19975;-72
2023/02/28 11:26:56;;;;;;;;;;;13.30;99.90;;;;;;8390294;28;20391;-71
2023/02/28 11:31:16;;;;;;;;;;;14.00;99.90;;;;;;8378036;28;19925;-71
2023/02/28 11:35:38;;;;;;;;;;;14.60;99.90;;;;;;8393903;28;19924;-71
2023/02/28 11:39:40;;;;;;;;;;;15.10;99.90;;;;;;8387829;28;19929;-71
2023/02/28 11:43:56;;;;;;;;;;;15.40;99.90;;;;;;8369576;28;19924;-72
2023/02/28 11:48:16;;;;;;;;;;;15.60;99.90;;;;;;8363048;28;19975;-71
2023/02/28 11:52:19;;;;;;;;;;;15.70;99.90;;;;;;8373879;28;20380;-71
2023/02/28 11:56:24;;;;;;;;;;;15.80;99.90;;;;;;8370188;28;19928;-71
2023/02/28 12:00:49;;;;;;;;;;;16.10;99.90;;;;;;8363434;28;19929;-71
2023/02/28 12:05:01;;;;;;;;;;;16.20;99.90;;;;;;8363998;28;20023;-71
2023/02/28 12:09:12;;;;;;;;;;;15.70;99.90;;;;;;8362767;28;19929;-71
2023/02/28 12:13:24;;;;;;;;;;;15.60;99.90;;;;;;8366106;28;20459;-71
2023/02/28 12:17:28;;;;;;;;;;;16.00;99.90;;;;;;8362297;28;19944;-71
2023/02/28 12:21:41;;;;;;;;;;;16.20;99.90;;;;;;8369253;28;19929;-71
2023/02/28 12:26:00;;;;;;;;;;;16.50;99.90;;;;;;8357577;28;19978;-71
2023/02/28 12:30:22;;;;;;;;;;;16.80;99.90;;;;;;8375768;28;19924;-71
2023/02/28 12:34:30;;;;;;;;;;;17.00;99.90;;;;;;8361676;28;19998;-71
2023/02/28 12:38:37;;;;;;;;;;;17.10;99.90;;;;;;8360369;28;20377;-71
2023/02/28 12:43:05;;;;;;;;;;;17.10;99.90;;;;;;8356943;28;19924;-71
2023/02/28 12:47:12;;;;;;;;;;;16.90;99.90;;;;;;8352622;28;19956;-71
2023/02/28 12:51:15;;;;;;;;;;;16.60;99.90;;;;;;8347147;28;19925;-71
2023/02/28 12:55:28;;;;;;;;;;;16.30;99.90;;;;;;8368365;28;19935;-71
2023/02/28 12:59:40;;;;;;;;;;;16.40;99.90;;;;;;8382189;28;20370;-71
2023/02/28 13:04:08;;;;;;;;;;;16.50;99.00;;;;;;8366826;28;19971;-71
2023/02/28 13:08:22;;;;;;;;;;;16.60;99.90;;;;;;8352370;28;19928;-71
2023/02/28 13:12:23;;;;;;;;;;;16.90;99.90;;;;;;8360635;28;19983;-71
2023/02/28 13:16:25;;;;;;;;;;;16.30;96.40;;;;;;8360988;28;20300;-71
2023/02/28 13:20:46;;;;;;;;;;;15.50;98.70;;;;;;8366405;28;20359;-71
2023/02/28 13:24:51;;;;;;;;;;;14.40;87.30;;;;;;8359283;28;20300;-71
2023/02/28 13:29:00;;;;;;;;;;;13.70;88.60;;;;;;8362705;28;20407;-71
2023/02/28 13:33:18;;;;;;;;;;;13.40;88.40;;;;;;8345042;28;19925;-70
2023/02/28 13:37:19;;;;;;;;;;;13.20;84.40;;;;;;8363138;28;20019;-70
2023/02/28 13:41:33;;;;;;;;;;;13.00;82.70;;;;;;8360990;28;20331;-71
2023/02/28 13:45:39;;;;;;;;;;;13.00;80.60;;;;;;8359273;28;19972;-71
2023/02/28 13:49:41;;;;;;;;;;;12.80;78.30;;;;;;8367449;28;19936;-71
2023/02/28 13:53:51;;;;;;;;;;;12.70;76.30;;;;;;8367965;28;19939;-71
2023/02/28 13:58:01;;;;;;;;;;;12.50;76.10;;;;;;8373571;28;20043;-71
2023/02/28 14:02:23;;;;;;;;;;;12.50;75.90;;;;;;8345279;28;19932;-71
2023/02/28 14:06:25;;;;;;;;;;;12.50;75.30;;;;;;8360638;28;19925;-71
2023/02/28 14:10:38;;;;;;;;;;;12.40;73.80;;;;;;8360635;28;20055;-71
2023/02/28 14:14:40;;;;;;;;;;;12.40;74.50;;;;;;8362221;28;19971;-71
2023/02/28 14:19:01;;;;;;;;;;;12.40;73.60;;;;;;8363467;28;20052;-71
2023/02/28 14:23:11;;;;;;;;;;;12.30;70.60;;;;;;8341618;28;19986;-71
2023/02/28 14:27:34;;;;;;;;;;;12.20;71.80;;;;;;8364616;28;20365;-70
2023/02/28 14:31:38;;;;;;;;;;;12.10;71.70;;;;;;8343681;28;19999;-70
2023/02/28 14:35:40;;;;;;;;;;;12.10;72.00;;;;;;8362075;28;20384;-71
2023/02/28 14:39:43;;;;;;;;;;;12.50;71.30;;;;;;8359586;28;19967;-71
2023/02/28 14:43:49;;;;;;;;;;;13.40;75.70;;;;;;8371987;28;19925;-71
2023/02/28 14:47:51;;;;;;;;;;;15.00;78.40;;;;;;8372645;28;19935;-71
2023/02/28 14:52:11;;;;;;;;;;;15.80;77.90;;;;;;8364714;28;19928;-71
2023/02/28 14:56:21;;;;;;;;;;;16.70;86.20;;;;;;8356976;28;19938;-71
2023/02/28 15:00:27;;;;;;;;;;;17.80;89.10;;;;;;8359823;28;19924;-71
2023/02/28 15:04:31;;;;;;;;;;;18.50;90.20;;;;;;8357608;28;19925;-71
2023/02/28 15:08:35;;;;;;;;;;;19.00;90.10;;;;;;8357542;28;19979;-72
2023/02/28 15:12:38;;;;;;;;;;;19.30;84.70;;;;;;8355080;28;19932;-71
2023/02/28 15:16:43;;;;;;;;;;;19.00;86.70;;;;;;8356060;28;20023;-71
2023/02/28 15:20:45;;;;;;;;;;;18.40;82.30;;;;;;8368369;28;19935;-71
2023/02/28 15:24:48;;;;;;;;;;;17.80;81.40;;;;;;8355492;28;19929;-71
2023/02/28 15:28:56;;;;;;;;;;;17.60;82.80;;;;;;8370338;28;20580;-71
2023/02/28 15:33:06;;;;;;;;;;;17.70;81.60;;;;;;8351949;28;19924;-71
2023/02/28 15:37:26;;;;;;;;;;;17.80;81.70;;;;;;8364003;28;20313;-71
2023/02/28 15:41:29;;;;;;;;;;;17.70;79.30;;;;;;8356728;28;19979;-71
2023/02/28 15:45:49;;;;;;;;;;;17.00;79.20;;;;;;8364125;28;19935;-71
2023/02/28 15:49:52;;;;;;;;;;;16.60;77.50;;;;;;8347246;28;19940;-71
2023/02/28 15:53:56;;;;;;;;;;;16.30;75.80;;;;;;8361577;28;20047;-71
2023/02/28 15:58:01;;;;;;;;;;;16.30;72.80;;;;;;8361098;28;20257;-71
2023/02/28 16:02:14;;;;;;;;;;;16.00;70.60;;;;;;8369761;28;19924;-71
2023/02/28 16:06:16;;;;;;;;;;;15.70;69.70;;;;;;8361683;28;19924;-71
2023/02/28 16:10:18;;;;;;;;;;;15.40;69.80;;;;;;8364773;28;20265;-71
2023/02/28 16:14:22;;;;;;;;;;;15.20;68.50;;;;;;8364239;28;20905;-71
2023/02/28 16:18:24;;;;;;;;;;;15.10;68.70;;;;;;8377194;28;19965;-71
2023/02/28 16:22:26;;;;;;;;;;;14.90;69.60;;;;;;8367668;28;19925;-71
2023/02/28 16:26:28;;;;;;;;;;;14.60;67.60;;;;;;8366826;28;20022;-71
2023/02/28 16:30:32;;;;;;;;;;;14.10;66.10;;;;;;8363064;28;19968;-71
2023/02/28 16:34:34;;;;;;;;;;;13.70;65.00;;;;;;8360370;28;19932;-71
2023/02/28 16:38:36;;;;;;;;;;;13.30;64.30;;;;;;8359938;28;19925;-70
2023/02/28 16:42:37;;;;;;;;;;;13.10;63.20;;;;;;8367480;28;19925;-71
2023/02/28 16:46:39;;;;;;;;;;;12.60;61.70;;;;;;8356907;28;19936;-71
2023/02/28 16:50:42;;;;;;;;;;;12.10;61.10;;;;;;8363173;28;19931;-70
2023/02/28 16:54:43;;;;;;;;;;;11.70;60.80;;;;;;8365585;28;20002;-71
2023/02/28 16:58:45;;;;;;;;;;;11.30;59.70;;;;;;8366437;28;19987;-70
2023/02/28 17:02:47;;;;;;;;;;;10.90;59.40;;;;;;8353917;28;20443;-70
2023/02/28 17:06:49;;;;;;;;;;;10.60;59.00;;;;;;8379396;28;19925;-71
2023/02/28 17:10:51;;;;;;;;;;;10.30;58.60;;;;;;8364493;28;19932;-71
2023/02/28 17:14:52;;;;;;;;;;;10.10;58.20;;;;;;8364283;28;19979;-70
2023/02/28 17:18:56;;;;;;;;;;;10.00;57.90;;;;;;8346504;28;19935;-71
2023/02/28 17:22:58;;;;;;;;;;;9.90;58.40;;;;;;8363519;28;20451;-71
2023/02/28 17:26:59;;;;;;;;;;;9.70;58.10;;;;;;8361893;28;19925;-70
2023/02/28 17:31:01;;;;;;;;;;;9.50;57.40;;;;;;8364967;28;19947;-70
2023/02/28 17:35:03;;;;;;;;;;;9.30;57.10;;;;;;8367011;28;19925;-70
2023/02/28 17:39:08;;;;;;;;;;;9.10;57.00;;;;;;8367128;28;20292;-70
2023/02/28 17:43:10;;;;;;;;;;;8.90;56.90;;;;;;8344368;28;19924;-70
2023/02/28 17:47:12;;;;;;;;;;;8.80;56.80;;;;;;8364084;28;19925;-70
2023/02/28 17:51:14;;;;;;;;;;;8.60;56.60;;;;;;8367638;28;20351;-70
2023/02/28 17:55:16;;;;;;;;;;;8.40;56.40;;;;;;8367676;28;19939;-70
2023/02/28 17:59:17;;;;;;;;;;;8.10;56.20;;;;;;8365702;28;20296;-70
2023/02/28 18:03:20;;;;;;;;;;;8.00;56.20;;;;;;8359638;28;19969;-70
2023/02/28 18:07:22;;;;;;;;;;;7.90;56.10;;;;;;8360981;28;19971;-70
2023/02/28 18:11:40;;;;;;;;;;;7.70;55.90;;;;;;8361007;28;19936;-70
2023/02/28 18:15:42;;;;;;;;;;;7.60;55.90;;;;;;8364737;28;19933;-71
2023/02/28 18:19:43;;;;;;;;;;;7.40;55.80;;;;;;8361762;28;19929;-71
2023/02/28 18:23:48;;;;;;;;;;;7.20;55.80;;;;;;8364003;28;20047;-71
2023/02/28 18:27:56;;;;;;;;;;;7.10;55.90;;;;;;8365610;28;19932;-71
2023/02/28 18:32:01;;;;;;;;;;;6.90;55.80;;;;;;8363384;28;19928;-70
2023/02/28 18:36:02;;;;;;;;;;;6.80;55.80;;;;;;8360814;28;19929;-70
2023/02/28 18:40:05;;;;;;;;;;;6.60;56.10;;;;;;8373316;28;19925;-70
2023/02/28 18:44:07;;;;;;;;;;;6.50;55.70;;;;;;8350951;28;19932;-70
2023/02/28 18:48:22;;;;;;;;;;;6.40;55.80;;;;;;8357904;28;19968;-70
2023/02/28 18:52:23;;;;;;;;;;;6.20;55.70;;;;;;8363056;28;19924;-70
2023/02/28 18:56:25;;;;;;;;;;;6.00;55.50;;;;;;8364534;28;19963;-70
2023/02/28 19:00:26;;;;;;;;;;;5.90;55.70;;;;;;8359130;28;20312;-70
2023/02/28 19:09:31;;;;;;;;;;;5.60;55.40;;;;;;8363872;28;19999;-70
2023/02/28 19:13:33;;;;;;;;;;;5.50;55.50;;;;;;8360474;28;19935;-70
2023/02/28 19:17:35;;;;;;;;;;;5.50;55.40;;;;;;8367017;28;20045;-71
2023/02/28 19:21:37;;;;;;;;;;;5.40;55.90;;;;;;8372167;28;19925;-71
2023/02/28 19:25:41;;;;;;;;;;;5.30;55.30;;;;;;8365852;28;19991;-71
2023/02/28 19:29:43;;;;;;;;;;;5.20;55.30;;;;;;8367535;28;20339;-70
2023/02/28 19:33:45;;;;;;;;;;;5.10;55.30;;;;;;8364259;28;19933;-71
2023/02/28 19:37:47;;;;;;;;;;;5.00;55.30;;;;;;8365836;28;19924;-70
2023/02/28 19:41:48;;;;;;;;;;;4.80;55.10;;;;;;8363713;28;20454;-70
2023/02/28 19:45:50;;;;;;;;;;;4.70;55.10;;;;;;8363993;28;19924;-71
2023/02/28 19:49:53;;;;;;;;;;;4.60;55.10;;;;;;8359964;28;19925;-70
2023/02/28 19:53:55;;;;;;;;;;;4.50;55.00;;;;;;8377914;28;19933;-70
2023/02/28 19:57:56;;;;;;;;;;;4.40;55.60;;;;;;8365094;28;19928;-70
2023/02/28 20:01:58;;;;;;;;;;;4.30;55.00;;;;;;8367838;28;20051;-70
2023/02/28 20:06:01;;;;;;;;;;;4.20;55.00;;;;;;8357399;28;19931;-70
2023/02/28 20:10:03;;;;;;;;;;;4.00;55.10;;;;;;8360539;28;19951;-71
2023/02/28 20:14:04;;;;;;;;;;;3.80;54.90;;;;;;8366327;28;19924;-71
2023/02/28 20:18:06;;;;;;;;;;;3.70;55.00;;;;;;8381385;28;19924;-71
2023/02/28 20:26:47;;;;;;;;;;;3.60;55.30;;;;;;8363202;28;19924;-70
2023/02/28 20:30:49;;;;;;;;;;;3.50;55.50;;;;;;8363193;28;20388;-70
2023/02/28 20:34:51;;;;;;;;;;;3.40;54.90;;;;;;8380905;28;19954;-70
2023/02/28 20:38:53;;;;;;;;;;;3.30;55.00;;;;;;8365647;28;19964;-70
2023/02/28 20:42:55;;;;;;;;;;;3.30;55.10;;;;;;8366950;28;19986;-70
2023/02/28 20:46:56;;;;;;;;;;;3.30;55.10;;;;;;8361907;28;20016;-70
2023/02/28 20:50:58;;;;;;;;;;;3.20;55.60;;;;;;8363902;28;19932;-70
2023/02/28 20:55:00;;;;;;;;;;;3.10;55.20;;;;;;8364491;28;19925;-70
2023/02/28 21:09:11;;;;;;;;;;;2.90;55.50;;;;;;8362866;28;19931;-71
2023/02/28 21:13:12;;;;;;;;;;;2.70;55.50;;;;;;8363337;28;19929;-70
2023/02/28 21:17:14;;;;;;;;;;;2.70;55.80;;;;;;8346787;28;19960;-71
2023/02/28 21:21:17;;;;;;;;;;;2.80;55.60;;;;;;8363585;28;20038;-71
2023/02/28 21:25:18;;;;;;;;;;;2.70;55.30;;;;;;8341180;28;20027;-71
2023/02/28 21:29:20;;;;;;;;;;;2.70;55.40;;;;;;8379577;28;20299;-70
2023/02/28 21:33:22;;;;;;;;;;;2.60;55.30;;;;;;8362373;28;19933;-70
2023/02/28 21:37:23;;;;;;;;;;;2.60;55.30;;;;;;8362473;28;19924;-71
2023/02/28 21:41:26;;;;;;;;;;;2.50;55.30;;;;;;8365552;28;19932;-71
2023/02/28 21:45:28;;;;;;;;;;;2.50;55.40;;;;;;8363052;28;20292;-70
2023/02/28 21:49:30;;;;;;;;;;;2.40;55.40;;;;;;8361718;28;19935;-70
2023/02/28 21:53:33;;;;;;;;;;;2.30;55.20;;;;;;8365525;28;19935;-70
2023/02/28 21:57:34;;;;;;;;;;;2.30;55.30;;;;;;8365461;28;19929;-70
2023/02/28 22:01:37;;;;;;;;;;;2.20;55.60;;;;;;8357309;28;20011;-70
2023/02/28 22:05:39;;;;;;;;;;;2.10;55.50;;;;;;8379690;28;20376;-71
2023/02/28 22:09:41;;;;;;;;;;;2.00;55.30;;;;;;8399870;28;19924;-70
2023/02/28 22:13:43;;;;;;;;;;;2.00;55.40;;;;;;8370399;28;19959;-70
2023/02/28 22:17:44;;;;;;;;;;;2.00;55.50;;;;;;8372432;28;19925;-70
2023/02/28 22:21:46;;;;;;;;;;;1.80;56.50;;;;;;8384818;28;19960;-70
2023/02/28 22:25:48;;;;;;;;;;;1.70;55.50;;;;;;8389606;28;20368;-70
2023/02/28 22:29:50;;;;;;;;;;;1.70;55.90;;;;;;8386022;28;19931;-70
2023/02/28 22:33:56;;;;;;;;;;;1.60;55.60;;;;;;8390161;28;19925;-70
2023/02/28 22:37:57;;;;;;;;;;;1.60;55.40;;;;;;8387082;28;20017;-70
2023/02/28 22:41:59;;;;;;;;;;;1.60;55.50;;;;;;8390586;28;19929;-70
2023/02/28 22:46:05;;;;;;;;;;;1.60;55.30;;;;;;8374497;28;19931;-70
2023/02/28 22:50:07;;;;;;;;;;;1.60;55.40;;;;;;8394347;28;20300;-70
2023/02/28 22:54:09;;;;;;;;;;;1.50;55.20;;;;;;8393969;28;20380;-70
2023/02/28 22:58:10;;;;;;;;;;;1.40;55.60;;;;;;8395382;28;19924;-70
2023/02/28 23:02:12;;;;;;;;;;;1.40;55.50;;;;;;8398462;28;19972;-70
2023/02/28 23:06:16;;;;;;;;;;;1.30;55.70;;;;;;8392908;28;19931;-70
2023/02/28 23:10:18;;;;;;;;;;;1.30;55.40;;;;;;8385510;28;19925;-70
2023/02/28 23:14:20;;;;;;;;;;;1.20;55.40;;;;;;8403795;28;20327;-71
2023/02/28 23:18:21;;;;;;;;;;;1.10;55.60;;;;;;8405119;28;19931;-70
2023/02/28 23:22:23;;;;;;;;;;;1.00;55.60;;;;;;8395949;28;20434;-70
2023/02/28 23:26:24;;;;;;;;;;;1.00;55.90;;;;;;8389305;28;19925;-70
2023/02/28 23:30:26;;;;;;;;;;;1.00;55.70;;;;;;8395199;28;19967;-70
2023/02/28 23:34:31;;;;;;;;;;;0.90;56.10;;;;;;8388683;28;19974;-70
2023/02/28 23:38:32;;;;;;;;;;;0.90;55.80;;;;;;8387369;28;20398;-70
2023/02/28 23:42:34;;;;;;;;;;;0.80;55.80;;;;;;8367780;28;19928;-70
2023/02/28 23:46:36;;;;;;;;;;;0.80;56.00;;;;;;8374997;28;19924;-70
2023/02/28 23:50:37;;;;;;;;;;;0.70;55.80;;;;;;8388472;28;19924;-70
2023/02/28 23:54:39;;;;;;;;;;;0.70;55.80;;;;;;8392801;28;19972;-70
2023/02/28 23:58:41;;;;;;;;;;;0.60;55.50;;;;;;8393977;28;19971;-70
